Impacts TAF Board
For situational awareness. Not to be used for flight planning purposes.
IDs:

KCHO - Charlottesville/Albe, VA, US

Issued at 1141 UTC 17 Sep 2019
Updated at 1242 UTC 17 Sep 2019
Potential Impact None Slight Moderate High
Time1153Z 17/13Z 17/14Z 17/15Z 17/16Z 17/17Z 17/18Z 17/19Z 17/20Z 17/21Z 17/22Z 17/23Z 18/00Z 18/01Z>>
Type OBS PRVL PRVL PRVL PRVL PRVL PRVL PRVL PRVL PRVL PRVL PRVL PRVL PRVL
VIS 10 >6 >6 >6 >6 >6 >6 >6 >6 >6 >6 >6 >6 >6
CIG 19 20 20 20 25 25 25 25 25 50 50 50 50 50
Cover BKN BKN BKN BKN BKN BKN BKN BKN BKN BKN BKN BKN BKN BKN
FltCat MVFR MVFR MVFR MVFR MVFR MVFR MVFR MVFR MVFR VFR VFR VFR VFR VFR
WX -- -- -- -- VCSH VCSH VCSH VCSH VCSH -- -- -- -- --
WDir 40 30 30 30 50 50 50 50 50 50 50 50 50 50
WSpd 5 7 7 7 7 7 7 7 7 4 4 4 4 4
WGst -- -- -- -- -- -- -- -- -- -- -- -- -- --
Raw TAF
KCHO 171141Z 1712/1812 03007KT P6SM BKN020
  FM171600 05007KT P6SM VCSH BKN025
  FM172100 05004KT P6SM BKN050
  FM180200 VRB03KT P6SM SCT100


Raw METAR
KCHO 171153Z 04005KT 10SM BKN019 BKN075 22/17 A3006 RMK AO2 SLP171 T02220167 10222 20211 53020
KCHO 171053Z VRB03KT 10SM FEW090 22/17 A3003 RMK AO2 SLP161 T02170167
KCHO 170953Z 03005KT 10SM CLR 21/17 A3001 RMK AO2 SLP154 T02110167

METAR Board
Radar Display
Forecast Discussion
For situational awareness. Not to be used for flight planning purposes.